createdAt,value
2023-01-21T00:00:16.299Z,13.05
2023-01-21T00:02:43.422Z,11.95
2023-01-21T00:05:10.253Z,12.13
2023-01-21T00:07:37.192Z,11.00
2023-01-21T00:10:04.227Z,11.57
2023-01-21T00:12:31.100Z,12.50
2023-01-21T00:14:57.988Z,11.95
2023-01-21T00:17:24.889Z,13.98
2023-01-21T00:19:51.750Z,12.13
2023-01-21T00:22:18.722Z,12.60
2023-01-21T00:24:45.628Z,11.45
2023-01-21T00:27:12.438Z,12.32
2023-01-21T00:29:39.284Z,11.70
2023-01-21T00:32:06.087Z,11.87
2023-01-21T00:34:32.954Z,12.00
2023-01-21T00:36:59.812Z,12.45
2023-01-21T00:39:26.738Z,11.25
2023-01-21T00:41:53.650Z,12.57
2023-01-21T00:44:20.548Z,11.77
2023-01-21T00:46:47.343Z,12.02
2023-01-21T00:49:14.192Z,11.90
2023-01-21T00:51:41.086Z,11.30
2023-01-21T00:54:07.974Z,12.88
2023-01-21T00:56:34.808Z,10.50
2023-01-21T00:59:01.786Z,12.40
2023-01-21T01:01:30.599Z,10.93
2023-01-21T01:03:57.549Z,11.63
2023-01-21T01:06:24.733Z,11.18
2023-01-21T01:08:52.246Z,11.30
2023-01-21T01:11:21.775Z,11.07
2023-01-21T01:13:48.619Z,11.68
2023-01-21T01:16:16.622Z,11.65
2023-01-21T01:18:43.974Z,11.02
2023-01-21T01:21:13.536Z,12.13
2023-01-21T01:23:40.781Z,10.90
2023-01-21T01:26:10.562Z,11.55
2023-01-21T01:28:37.440Z,12.20
2023-01-21T01:31:06.851Z,11.57
2023-01-21T01:33:34.200Z,10.03
2023-01-21T01:36:10.901Z,10.95
2023-01-21T01:38:37.755Z,10.55
2023-01-21T01:41:05.065Z,10.52
2023-01-21T01:43:53.833Z,10.57
2023-01-21T01:46:21.573Z,10.90
2023-01-21T01:49:22.024Z,10.63
2023-01-21T01:51:54.785Z,10.35
2023-01-21T01:54:31.948Z,12.25
2023-01-21T01:57:02.576Z,9.68
2023-01-21T01:59:31.191Z,10.60
2023-01-21T02:02:00.848Z,12.00
2023-01-21T02:04:33.690Z,11.13
2023-01-21T02:07:00.874Z,11.25
2023-01-21T02:09:30.849Z,11.43
2023-01-21T02:12:01.499Z,10.30
2023-01-21T02:14:30.706Z,9.90
2023-01-21T02:17:12.114Z,10.45
2023-01-21T02:19:44.701Z,9.73
2023-01-21T02:22:30.475Z,10.38
2023-01-21T02:25:03.237Z,9.33
2023-01-21T02:27:36.244Z,10.10
2023-01-21T02:30:24.658Z,9.30
2023-01-21T02:33:13.762Z,8.75
2023-01-21T02:35:48.456Z,9.80
2023-01-21T02:38:32.586Z,9.67
2023-01-21T02:41:18.152Z,9.90
2023-01-21T02:44:13.526Z,9.35
2023-01-21T02:46:45.107Z,10.43
2023-01-21T02:49:20.934Z,8.80
2023-01-21T02:51:48.697Z,9.03
2023-01-21T02:54:41.613Z,9.88
2023-01-21T02:57:14.372Z,10.65
2023-01-21T02:59:47.458Z,10.27
2023-01-21T03:02:43.690Z,11.15
2023-01-21T03:05:45.004Z,9.93
2023-01-21T03:08:18.777Z,8.65
2023-01-21T03:10:55.351Z,9.85
2023-01-21T03:13:52.779Z,10.38
2023-01-21T03:16:43.629Z,9.00
2023-01-21T03:19:14.698Z,9.00
2023-01-21T03:21:42.332Z,9.35
2023-01-21T03:24:11.326Z,11.02
2023-01-21T03:26:52.715Z,9.48
2023-01-21T03:29:26.479Z,10.15
2023-01-21T03:31:58.286Z,10.07
2023-01-21T03:34:30.765Z,10.75
2023-01-21T03:37:10.111Z,10.60
2023-01-21T03:39:59.128Z,9.98
2023-01-21T03:42:27.353Z,10.48
2023-01-21T03:44:54.797Z,9.87
2023-01-21T03:47:28.903Z,9.90
2023-01-21T03:50:04.658Z,10.50
2023-01-21T03:52:32.137Z,9.95
2023-01-21T03:54:59.432Z,10.27
2023-01-21T03:57:26.262Z,9.83
2023-01-21T03:59:53.811Z,9.77
2023-01-21T04:02:21.217Z,9.68
2023-01-21T04:04:48.386Z,10.80
2023-01-21T04:07:16.050Z,10.25
2023-01-21T04:09:42.970Z,10.23
2023-01-21T04:12:10.837Z,10.25
2023-01-21T04:14:38.198Z,9.80
2023-01-21T04:17:05.306Z,10.30
2023-01-21T04:19:32.256Z,10.10
2023-01-21T04:21:59.488Z,10.60
2023-01-21T04:24:26.411Z,8.60
2023-01-21T04:26:53.333Z,10.60
2023-01-21T04:29:20.831Z,9.50
2023-01-21T04:31:48.482Z,10.05
2023-01-21T04:34:16.861Z,9.50
2023-01-21T04:36:43.834Z,9.50
2023-01-21T04:39:11.645Z,10.57
2023-01-21T04:41:38.460Z,9.35
2023-01-21T04:44:05.578Z,10.18
2023-01-21T04:46:32.471Z,10.80
2023-01-21T04:48:59.517Z,11.23
2023-01-21T04:51:26.352Z,10.85
2023-01-21T04:53:53.200Z,11.05
2023-01-21T04:56:20.054Z,9.82
2023-01-21T04:58:46.829Z,11.17
2023-01-21T05:01:13.815Z,9.70
2023-01-21T05:03:40.732Z,9.95
2023-01-21T05:06:07.673Z,8.95
2023-01-21T05:08:34.534Z,10.25
2023-01-21T05:11:01.388Z,10.13
2023-01-21T05:13:28.407Z,9.52
2023-01-21T05:15:55.270Z,10.52
2023-01-21T05:18:22.221Z,11.20
2023-01-21T05:20:49.015Z,10.45
2023-01-21T05:23:15.917Z,8.63
2023-01-21T05:25:42.846Z,9.85
2023-01-21T05:28:09.697Z,9.07
2023-01-21T05:30:39.200Z,10.23
2023-01-21T05:33:07.258Z,10.25
2023-01-21T05:35:35.155Z,9.33
2023-01-21T05:38:01.999Z,9.35
2023-01-21T05:40:28.997Z,9.18
2023-01-21T05:42:55.725Z,10.07
2023-01-21T05:45:22.803Z,9.43
2023-01-21T05:47:49.707Z,10.03
2023-01-21T05:50:16.873Z,10.55
2023-01-21T05:52:43.857Z,10.10
2023-01-21T05:55:13.393Z,11.90
2023-01-21T05:57:40.242Z,11.65
2023-01-21T06:00:07.904Z,10.57
2023-01-21T06:02:34.739Z,10.25
2023-01-21T06:05:01.544Z,11.15
2023-01-21T06:07:28.435Z,11.55
2023-01-21T06:09:55.268Z,11.20
2023-01-21T06:12:23.879Z,12.10
2023-01-21T06:14:51.683Z,11.70
2023-01-21T06:17:18.551Z,11.57
2023-01-21T06:19:45.409Z,13.32
2023-01-21T06:22:15.782Z,13.10
2023-01-21T06:24:45.407Z,12.37
2023-01-21T06:27:12.760Z,12.52
2023-01-21T06:29:39.677Z,11.80
2023-01-21T06:32:06.797Z,13.00
2023-01-21T06:34:33.766Z,12.50
2023-01-21T06:37:00.637Z,12.67
2023-01-21T06:39:27.527Z,14.00
2023-01-21T06:41:55.437Z,12.82
2023-01-21T06:44:27.920Z,12.95
2023-01-21T06:47:02.231Z,12.07
2023-01-21T06:49:29.347Z,12.67
2023-01-21T06:51:56.638Z,14.18
2023-01-21T06:54:23.585Z,12.40
2023-01-21T06:56:50.334Z,14.35
2023-01-21T06:59:17.215Z,12.95
2023-01-21T07:01:44.137Z,13.53
2023-01-21T07:04:11.125Z,12.93
2023-01-21T07:06:38.838Z,14.32
2023-01-21T07:09:07.141Z,12.85
2023-01-21T07:11:34.812Z,13.15
2023-01-21T07:14:01.832Z,12.67
2023-01-21T07:16:28.748Z,13.43
2023-01-21T07:18:58.543Z,13.63
2023-01-21T07:21:25.844Z,13.30
2023-01-21T07:23:53.982Z,13.88
2023-01-21T07:26:21.166Z,13.70
2023-01-21T07:28:51.217Z,13.27
2023-01-21T07:31:18.103Z,12.65
2023-01-21T07:33:47.909Z,14.20
2023-01-21T07:36:14.843Z,12.50
2023-01-21T07:38:41.712Z,13.67
2023-01-21T07:41:08.587Z,12.55
2023-01-21T07:43:35.464Z,13.60
2023-01-21T07:46:02.389Z,12.45
2023-01-21T07:48:29.368Z,13.05
2023-01-21T07:51:02.670Z,14.07
2023-01-21T07:53:29.625Z,12.68
2023-01-21T07:55:56.533Z,13.00
2023-01-21T07:58:27.455Z,14.85
2023-01-21T08:00:54.255Z,13.70
2023-01-21T08:03:23.379Z,14.00
2023-01-21T08:05:52.206Z,14.15
2023-01-21T08:08:19.596Z,13.60
2023-01-21T08:10:52.653Z,13.75
2023-01-21T08:13:19.891Z,14.93
2023-01-21T08:15:51.288Z,15.23
2023-01-21T08:18:19.139Z,12.82
2023-01-21T08:20:46.067Z,15.13
2023-01-21T08:23:12.961Z,15.65
2023-01-21T08:25:39.980Z,13.40
2023-01-21T08:28:06.913Z,13.90
2023-01-21T08:30:34.078Z,14.52
2023-01-21T08:33:01.069Z,14.90
2023-01-21T08:35:27.966Z,14.23
2023-01-21T08:37:57.683Z,13.98
2023-01-21T08:40:26.558Z,13.93
2023-01-21T08:42:59.760Z,15.68
2023-01-21T08:45:27.661Z,14.75
2023-01-21T08:47:55.201Z,13.63
2023-01-21T08:50:22.432Z,14.75
2023-01-21T08:52:56.017Z,14.50
2023-01-21T08:55:26.919Z,14.23
2023-01-21T08:57:54.807Z,12.82
2023-01-21T09:00:23.817Z,14.52
2023-01-21T09:02:51.744Z,14.02
2023-01-21T09:05:19.739Z,15.70
2023-01-21T09:07:47.217Z,16.00
2023-01-21T09:10:37.392Z,14.32
2023-01-21T09:13:08.632Z,14.55
2023-01-21T09:15:42.985Z,13.00
2023-01-21T09:18:10.061Z,13.27
2023-01-21T09:20:37.949Z,15.38
2023-01-21T09:23:24.972Z,13.70
2023-01-21T09:26:03.971Z,13.20
2023-01-21T09:28:33.339Z,13.23
2023-01-21T09:31:03.891Z,13.00
2023-01-21T09:33:35.046Z,13.38
2023-01-21T09:36:04.253Z,12.27
2023-01-21T09:38:31.062Z,11.50
2023-01-21T09:41:21.993Z,12.38
2023-01-21T09:43:57.564Z,12.50
2023-01-21T09:46:34.916Z,13.07
2023-01-21T09:49:04.460Z,12.70
2023-01-21T09:51:42.888Z,13.75
2023-01-21T09:54:19.473Z,13.63
2023-01-21T09:57:27.461Z,11.90
2023-01-21T10:00:08.072Z,13.57
2023-01-21T10:03:04.668Z,12.85
2023-01-21T10:05:37.399Z,12.75
2023-01-21T10:08:38.232Z,13.82
2023-01-21T10:11:32.736Z,13.97
2023-01-21T10:14:14.709Z,14.27
2023-01-21T10:16:48.649Z,15.23
2023-01-21T10:19:22.734Z,14.23
2023-01-21T10:21:54.147Z,14.63
2023-01-21T10:24:27.312Z,15.67
2023-01-21T10:26:57.393Z,16.02
2023-01-21T10:29:27.040Z,16.02
2023-01-21T10:32:01.563Z,13.25
2023-01-21T10:34:43.787Z,14.60
2023-01-21T10:37:43.139Z,14.50
2023-01-21T10:40:43.398Z,15.52
2023-01-21T10:43:18.507Z,14.68
2023-01-21T10:46:05.557Z,14.98
2023-01-21T10:48:54.258Z,15.75
2023-01-21T10:51:29.841Z,14.17
2023-01-21T10:54:19.975Z,13.00
2023-01-21T10:56:50.795Z,12.88
2023-01-21T10:59:23.401Z,14.43
2023-01-21T11:02:13.951Z,14.27
2023-01-21T11:04:42.047Z,14.13
2023-01-21T11:07:13.004Z,13.73
2023-01-21T11:09:43.578Z,13.25
2023-01-21T11:12:18.876Z,13.52
2023-01-21T11:14:58.084Z,12.93
2023-01-21T11:17:37.945Z,12.53
2023-01-21T11:20:16.916Z,12.68
2023-01-21T11:22:45.745Z,12.02
2023-01-21T11:25:36.579Z,11.70
2023-01-21T11:28:05.314Z,12.93
2023-01-21T11:30:51.056Z,12.23
2023-01-21T11:33:26.722Z,10.80
2023-01-21T11:35:55.410Z,12.27
2023-01-21T11:38:36.034Z,12.98
2023-01-21T11:41:11.064Z,12.32
2023-01-21T11:43:51.227Z,12.30
2023-01-21T11:46:41.642Z,12.15
2023-01-21T11:49:08.637Z,13.18
2023-01-21T11:51:36.948Z,13.50
2023-01-21T11:54:14.487Z,11.95
2023-01-21T11:56:54.792Z,13.97
2023-01-21T11:59:24.615Z,13.30
2023-01-21T12:02:13.555Z,12.27
2023-01-21T12:04:48.534Z,13.32
2023-01-21T12:07:25.520Z,12.68
2023-01-21T12:10:04.795Z,12.53
2023-01-21T12:12:49.125Z,12.00
2023-01-21T12:15:42.780Z,12.40
2023-01-21T12:18:24.950Z,12.98
2023-01-21T12:21:21.203Z,13.45
2023-01-21T12:24:06.437Z,11.87
2023-01-21T12:26:50.668Z,11.90
2023-01-21T12:29:49.645Z,10.48
2023-01-21T12:32:26.815Z,11.80
2023-01-21T12:34:53.923Z,12.32
2023-01-21T12:37:38.109Z,11.13
2023-01-21T12:40:37.965Z,9.25
2023-01-21T12:43:21.195Z,11.63
2023-01-21T12:46:02.519Z,11.55
2023-01-21T12:48:40.865Z,12.43
2023-01-21T12:51:15.198Z,11.67
2023-01-21T12:53:53.662Z,12.20
2023-01-21T12:56:28.798Z,10.93
2023-01-21T12:59:08.180Z,12.15
2023-01-21T13:01:56.666Z,11.70
2023-01-21T13:04:38.731Z,11.07
2023-01-21T13:07:53.891Z,12.38
2023-01-21T13:10:31.086Z,10.88
2023-01-21T13:13:15.351Z,12.40
2023-01-21T13:15:45.587Z,11.50
2023-01-21T13:18:18.839Z,11.07
2023-01-21T13:20:54.721Z,12.20
2023-01-21T13:23:42.270Z,11.98
2023-01-21T13:26:15.322Z,11.57
2023-01-21T13:28:48.455Z,11.43
2023-01-21T13:31:28.640Z,10.80
2023-01-21T13:34:04.549Z,11.77
2023-01-21T13:36:55.688Z,10.85
2023-01-21T13:39:52.169Z,12.23
2023-01-21T13:42:39.304Z,11.15
2023-01-21T13:45:43.468Z,11.27
2023-01-21T13:48:45.575Z,11.95
2023-01-21T13:51:22.421Z,11.45
2023-01-21T13:54:13.601Z,10.75
2023-01-21T13:57:08.106Z,11.43
2023-01-21T13:59:52.389Z,10.57
2023-01-21T14:02:35.897Z,12.02
2023-01-21T14:05:15.477Z,11.35
2023-01-21T14:07:51.130Z,9.60
2023-01-21T14:10:43.059Z,10.07
2023-01-21T14:14:00.238Z,9.10
2023-01-21T14:16:34.144Z,9.80
2023-01-21T14:19:28.401Z,10.68
2023-01-21T14:22:13.693Z,10.10
2023-01-21T14:24:54.627Z,10.38
2023-01-21T14:27:27.608Z,9.73
2023-01-21T14:30:01.958Z,9.85
2023-01-21T14:32:49.155Z,9.68
2023-01-21T14:35:21.804Z,9.63
2023-01-21T14:38:13.643Z,9.95
2023-01-21T14:40:51.950Z,10.70
2023-01-21T14:43:40.653Z,9.07
2023-01-21T14:46:29.646Z,9.15
2023-01-21T14:49:10.645Z,10.32
2023-01-21T14:51:47.927Z,9.27
2023-01-21T14:54:27.214Z,8.50
2023-01-21T14:57:01.696Z,10.07
2023-01-21T14:59:41.941Z,9.93
2023-01-21T15:02:42.112Z,10.15
2023-01-21T15:05:12.503Z,9.75
2023-01-21T15:07:41.696Z,9.97
2023-01-21T15:10:20.305Z,10.45
2023-01-21T15:12:55.004Z,9.80
2023-01-21T15:15:40.042Z,9.05
2023-01-21T15:18:09.819Z,9.13
2023-01-21T15:20:42.810Z,9.43
2023-01-21T15:23:27.449Z,8.43
2023-01-21T15:26:30.851Z,8.88
2023-01-21T15:29:34.553Z,8.50
2023-01-21T15:32:32.322Z,9.20
2023-01-21T15:35:03.522Z,9.00
2023-01-21T15:37:36.168Z,10.32
2023-01-21T15:40:17.130Z,8.13
2023-01-21T15:42:55.423Z,8.15
2023-01-21T15:46:01.037Z,8.27
2023-01-21T15:48:41.667Z,9.73
2023-01-21T15:51:40.145Z,7.70
2023-01-21T15:54:38.751Z,8.80
2023-01-21T15:57:23.821Z,7.72
2023-01-21T16:00:07.484Z,8.65
2023-01-21T16:02:45.369Z,10.43
2023-01-21T16:05:22.585Z,9.18
2023-01-21T16:08:18.801Z,8.68
2023-01-21T16:11:09.394Z,6.85
2023-01-21T16:13:59.284Z,7.68
2023-01-21T16:16:55.516Z,7.00
2023-01-21T16:19:37.238Z,8.07
2023-01-21T16:22:07.946Z,8.05
2023-01-21T16:24:40.611Z,8.43
2023-01-21T16:27:23.519Z,7.57
2023-01-21T16:29:58.087Z,8.13
2023-01-21T16:32:25.643Z,7.70
2023-01-21T16:34:52.629Z,7.30
2023-01-21T16:37:22.947Z,8.15
2023-01-21T16:39:54.472Z,8.73
2023-01-21T16:42:30.546Z,7.87
2023-01-21T16:44:58.891Z,7.97
2023-01-21T16:47:30.663Z,8.63
2023-01-21T16:49:57.882Z,7.70
2023-01-21T16:52:25.187Z,8.50
2023-01-21T16:54:54.974Z,7.87
2023-01-21T16:57:40.097Z,7.53
2023-01-21T17:00:24.813Z,8.20
2023-01-21T17:02:51.991Z,6.82
2023-01-21T17:05:19.671Z,7.78
2023-01-21T17:07:56.202Z,8.17
2023-01-21T17:10:41.017Z,7.03
2023-01-21T17:13:16.290Z,8.60
2023-01-21T17:16:21.686Z,8.35
2023-01-21T17:18:52.473Z,7.70
2023-01-21T17:21:28.041Z,8.30
2023-01-21T17:23:58.970Z,6.65
2023-01-21T17:26:29.755Z,8.57
2023-01-21T17:29:28.507Z,8.27
2023-01-21T17:32:07.510Z,9.05
2023-01-21T17:34:38.148Z,9.60
2023-01-21T17:37:43.888Z,8.82
2023-01-21T17:40:42.579Z,9.07
2023-01-21T17:43:22.651Z,9.10
2023-01-21T17:45:51.526Z,9.77
2023-01-21T17:48:23.196Z,9.20
2023-01-21T17:50:50.457Z,10.02
2023-01-21T17:53:26.342Z,12.48
2023-01-21T17:56:05.390Z,11.00
2023-01-21T17:58:32.294Z,9.20
2023-01-21T18:01:04.484Z,9.13
2023-01-21T18:03:31.232Z,8.85
2023-01-21T18:05:58.624Z,7.05
2023-01-21T18:08:26.085Z,7.65
2023-01-21T18:10:52.965Z,8.77
2023-01-21T18:13:21.667Z,8.73
2023-01-21T18:15:51.873Z,9.82
2023-01-21T18:18:28.489Z,8.00
2023-01-21T18:20:55.802Z,8.88
2023-01-21T18:23:23.033Z,9.65
2023-01-21T18:25:54.817Z,10.50
2023-01-21T18:28:24.485Z,8.85
2023-01-21T18:30:54.462Z,10.75
2023-01-21T18:33:22.300Z,11.52
2023-01-21T18:35:51.031Z,18.33
2023-01-21T18:38:32.600Z,18.03
2023-01-21T18:41:00.459Z,12.63
2023-01-21T18:43:27.402Z,12.38
2023-01-21T18:45:54.860Z,11.70
2023-01-21T18:48:27.877Z,12.52
2023-01-21T18:50:54.892Z,10.13
2023-01-21T18:53:22.194Z,10.18
2023-01-21T18:55:53.809Z,9.73
2023-01-21T18:58:21.044Z,12.48
2023-01-21T19:00:48.709Z,11.55
2023-01-21T19:03:16.197Z,10.20
2023-01-21T19:05:47.793Z,15.07
2023-01-21T19:08:22.060Z,12.40
2023-01-21T19:10:48.953Z,14.27
2023-01-21T19:13:15.917Z,10.93
2023-01-21T19:15:43.234Z,12.13
2023-01-21T19:18:11.954Z,10.75
2023-01-21T19:20:42.025Z,12.77
2023-01-21T19:23:17.931Z,12.27
2023-01-21T19:25:57.774Z,11.20
2023-01-21T19:28:25.324Z,10.03
2023-01-21T19:30:55.726Z,10.27
2023-01-21T19:33:23.485Z,12.38
2023-01-21T19:35:56.119Z,10.57
2023-01-21T19:38:23.856Z,10.60
2023-01-21T19:40:50.958Z,10.80
2023-01-21T19:43:22.964Z,10.30
2023-01-21T19:45:51.968Z,10.23
2023-01-21T19:48:21.159Z,11.25
2023-01-21T19:50:48.500Z,9.95
2023-01-21T19:53:17.596Z,10.13
2023-01-21T19:55:46.518Z,10.75
2023-01-21T19:58:20.195Z,11.25
2023-01-21T20:00:49.527Z,9.25
2023-01-21T20:03:18.690Z,10.38
2023-01-21T20:05:48.124Z,11.20
2023-01-21T20:08:22.096Z,10.02
2023-01-21T20:10:49.097Z,9.48
2023-01-21T20:13:16.735Z,9.75
2023-01-21T20:15:45.568Z,10.73
2023-01-21T20:18:22.888Z,10.50
2023-01-21T20:20:49.990Z,10.13
2023-01-21T20:23:17.751Z,14.68
2023-01-21T20:25:47.374Z,11.40
2023-01-21T20:28:20.967Z,9.50
2023-01-21T20:30:49.546Z,9.77
2023-01-21T20:33:19.191Z,11.00
2023-01-21T20:35:56.899Z,10.63
2023-01-21T20:38:30.324Z,11.68
2023-01-21T20:40:58.225Z,10.93
2023-01-21T20:43:25.270Z,10.43
2023-01-21T20:45:53.413Z,10.18
2023-01-21T20:48:25.787Z,10.80
2023-01-21T20:50:53.241Z,9.70
2023-01-21T20:53:20.489Z,11.50
2023-01-21T20:55:50.907Z,10.53
2023-01-21T20:58:22.075Z,10.73
2023-01-21T21:00:49.551Z,12.52
2023-01-21T21:03:18.364Z,13.13
2023-01-21T21:05:49.456Z,11.98
2023-01-21T21:08:21.157Z,15.50
2023-01-21T21:10:50.975Z,13.75
2023-01-21T21:13:18.018Z,16.92
2023-01-21T21:15:46.623Z,16.17
2023-01-21T21:18:14.717Z,14.63
2023-01-21T21:20:41.972Z,15.57
2023-01-21T21:23:14.143Z,11.10
2023-01-21T21:25:43.803Z,12.15
2023-01-21T21:28:17.392Z,11.65
2023-01-21T21:30:45.226Z,11.48
2023-01-21T21:33:22.537Z,11.43
2023-01-21T21:35:50.010Z,10.65
2023-01-21T21:38:21.963Z,10.95
2023-01-21T21:40:53.226Z,10.43
2023-01-21T21:43:33.561Z,11.93
2023-01-21T21:46:30.627Z,10.87
2023-01-21T21:48:57.561Z,9.68
2023-01-21T21:51:24.557Z,9.93
2023-01-21T21:53:51.662Z,10.00
2023-01-21T21:56:23.792Z,9.40
2023-01-21T21:58:51.445Z,9.20
2023-01-21T22:01:23.844Z,12.85
2023-01-21T22:03:51.188Z,10.63
2023-01-21T22:06:20.179Z,12.15
2023-01-21T22:08:48.221Z,8.98
2023-01-21T22:11:19.671Z,8.77
2023-01-21T22:17:49.598Z,8.52
2023-01-21T22:20:16.527Z,8.95
2023-01-21T22:22:43.413Z,10.45
2023-01-21T22:25:17.081Z,10.13
2023-01-21T22:27:45.554Z,12.07
2023-01-21T22:30:12.999Z,10.18
2023-01-21T22:32:48.445Z,10.23
2023-01-21T22:35:15.857Z,10.45
2023-01-21T22:37:48.881Z,11.63
2023-01-21T22:40:19.458Z,9.23
2023-01-21T22:43:03.112Z,8.80
2023-01-21T22:45:33.144Z,8.40
2023-01-21T22:48:30.007Z,9.35
2023-01-21T22:51:04.519Z,7.97
2023-01-21T22:53:34.981Z,8.13
2023-01-21T22:56:04.512Z,8.10
2023-01-21T22:58:56.407Z,8.45
2023-01-21T23:01:57.826Z,8.73
2023-01-21T23:04:41.062Z,9.00
2023-01-21T23:07:10.312Z,7.18
2023-01-21T23:09:39.306Z,8.05
2023-01-21T23:12:08.833Z,8.27
2023-01-21T23:14:35.693Z,8.40
2023-01-21T23:17:03.218Z,8.13
2023-01-21T23:19:30.069Z,8.07
2023-01-21T23:21:56.830Z,8.82
2023-01-21T23:24:23.856Z,7.43
2023-01-21T23:26:50.720Z,6.72
2023-01-21T23:29:17.496Z,6.97
2023-01-21T23:31:44.437Z,7.40
2023-01-21T23:34:14.600Z,7.15
2023-01-21T23:36:41.547Z,6.70
2023-01-21T23:39:08.352Z,7.38
2023-01-21T23:41:35.197Z,6.70
2023-01-21T23:44:02.024Z,7.85
2023-01-21T23:46:29.021Z,7.25
2023-01-21T23:48:55.908Z,6.35
2023-01-21T23:51:22.805Z,8.35
2023-01-21T23:53:49.820Z,7.80
2023-01-21T23:56:20.776Z,7.63
2023-01-21T23:58:48.486Z,7.68
